Time;durP1;ratioP1;P1;durP2;ratioP2;P2;SDS_P1;SDS_P2;PMS_P1;PMS_P2;Temp;Humidity;BMP_temperature;BMP_pressure;BME280_temperature;BME280_humidity;BME280_pressure;Samples;Min_cycle;Max_cycle;Signal;HPM_P1;HPM_P2
2022/04/29 00:00:30;;;;;;;;;;;10.20;90.00;;;;;;5113789;28;19988;-73
2022/04/29 00:02:55;;;;;;;;;;;10.20;90.00;;;;;;5113746;28;19911;-73
2022/04/29 00:05:21;;;;;;;;;;;10.20;90.50;;;;;;5113643;28;20355;-73
2022/04/29 00:07:47;;;;;;;;;;;10.10;90.70;;;;;;5113595;28;20203;-73
2022/04/29 00:10:14;;;;;;;;;;;10.10;90.60;;;;;;5113845;28;20354;-73
2022/04/29 00:12:41;;;;;;;;;;;10.00;91.00;;;;;;5112307;28;20286;-73
2022/04/29 00:15:07;;;;;;;;;;;10.00;91.10;;;;;;5113460;28;20097;-73
2022/04/29 00:17:33;;;;;;;;;;;10.00;91.40;;;;;;5114002;28;20394;-73
2022/04/29 00:19:58;;;;;;;;;;;9.90;91.90;;;;;;5095067;28;19912;-73
2022/04/29 00:22:24;;;;;;;;;;;10.00;91.70;;;;;;5113570;28;20014;-73
2022/04/29 00:24:49;;;;;;;;;;;9.80;92.10;;;;;;5113182;28;20002;-73
2022/04/29 00:27:15;;;;;;;;;;;9.70;91.90;;;;;;5113585;28;19966;-73
2022/04/29 00:29:41;;;;;;;;;;;9.70;92.40;;;;;;5113100;28;20327;-73
2022/04/29 00:32:06;;;;;;;;;;;9.60;92.80;;;;;;5094907;28;19916;-72
2022/04/29 00:34:32;;;;;;;;;;;9.50;93.30;;;;;;5112602;28;19920;-73
2022/04/29 00:36:57;;;;;;;;;;;9.50;94.10;;;;;;5113315;28;19923;-73
2022/04/29 00:39:23;;;;;;;;;;;9.50;94.80;;;;;;5112814;28;20085;-73
2022/04/29 00:41:49;;;;;;;;;;;9.40;95.30;;;;;;5113315;28;19915;-73
2022/04/29 00:44:14;;;;;;;;;;;9.30;96.10;;;;;;5112902;28;19908;-73
2022/04/29 00:46:41;;;;;;;;;;;9.30;96.60;;;;;;5094539;28;19927;-74
2022/04/29 00:49:08;;;;;;;;;;;9.30;97.10;;;;;;5112888;28;20348;-73
2022/04/29 00:51:34;;;;;;;;;;;9.20;97.80;;;;;;5113024;28;19915;-73
2022/04/29 00:54:01;;;;;;;;;;;9.10;97.50;;;;;;5112643;28;19912;-73
2022/04/29 00:56:30;;;;;;;;;;;9.10;98.20;;;;;;5112931;28;20003;-73
2022/04/29 00:59:05;;;;;;;;;;;9.10;98.30;;;;;;5112600;28;20363;-73
2022/04/29 01:01:32;;;;;;;;;;;9.10;98.30;;;;;;5094334;28;19924;-74
2022/04/29 01:03:59;;;;;;;;;;;9.10;98.20;;;;;;5112351;28;19998;-73
2022/04/29 01:06:25;;;;;;;;;;;9.10;98.50;;;;;;5112801;28;20278;-74
2022/04/29 01:08:51;;;;;;;;;;;9.00;98.90;;;;;;5112562;28;20394;-73
2022/04/29 01:11:20;;;;;;;;;;;9.00;99.20;;;;;;5094287;28;20011;-73
2022/04/29 01:13:46;;;;;;;;;;;9.10;99.20;;;;;;5112206;28;19926;-73
2022/04/29 01:16:11;;;;;;;;;;;9.10;99.50;;;;;;5112486;28;20022;-73
2022/04/29 01:18:37;;;;;;;;;;;9.10;98.70;;;;;;5094065;28;20405;-73
2022/04/29 01:21:03;;;;;;;;;;;9.10;98.20;;;;;;5112332;28;19916;-73
2022/04/29 01:23:29;;;;;;;;;;;9.20;97.60;;;;;;5112187;28;19969;-73
2022/04/29 01:25:54;;;;;;;;;;;9.30;96.50;;;;;;5112060;28;19951;-72
2022/04/29 01:28:21;;;;;;;;;;;9.50;96.10;;;;;;5112510;28;19919;-72
2022/04/29 01:30:49;;;;;;;;;;;9.60;95.80;;;;;;5112099;28;19915;-72
2022/04/29 01:33:15;;;;;;;;;;;9.60;95.70;;;;;;5093882;28;19908;-73
2022/04/29 01:35:40;;;;;;;;;;;9.60;96.90;;;;;;5111822;28;19969;-73
2022/04/29 01:38:06;;;;;;;;;;;9.50;97.80;;;;;;5111748;28;19911;-72
2022/04/29 01:40:31;;;;;;;;;;;9.40;97.40;;;;;;5112017;28;19916;-73
2022/04/29 01:42:57;;;;;;;;;;;9.30;97.60;;;;;;5093704;28;19907;-72
2022/04/29 01:45:22;;;;;;;;;;;9.20;98.70;;;;;;5111958;28;19959;-73
2022/04/29 01:47:48;;;;;;;;;;;9.10;99.30;;;;;;5111965;28;20275;-73
2022/04/29 01:50:13;;;;;;;;;;;9.10;99.80;;;;;;5111807;28;19966;-73
2022/04/29 01:52:39;;;;;;;;;;;9.00;99.90;;;;;;5111930;28;19908;-73
2022/04/29 01:55:05;;;;;;;;;;;9.00;99.90;;;;;;5111619;28;20007;-73
2022/04/29 01:57:30;;;;;;;;;;;9.00;99.90;;;;;;5112251;28;19927;-73
2022/04/29 01:59:56;;;;;;;;;;;8.90;99.90;;;;;;5111416;28;19930;-72
2022/04/29 02:02:22;;;;;;;;;;;8.90;99.90;;;;;;5112144;28;19923;-72
2022/04/29 02:04:47;;;;;;;;;;;8.70;99.90;;;;;;5111552;28;19915;-72
2022/04/29 02:07:13;;;;;;;;;;;8.60;99.90;;;;;;5112061;28;19920;-72
2022/04/29 02:09:38;;;;;;;;;;;8.50;99.90;;;;;;5111848;28;19908;-73
2022/04/29 02:12:04;;;;;;;;;;;8.40;99.90;;;;;;5111684;28;19934;-72
2022/04/29 02:14:39;;;;;;;;;;;8.30;99.90;;;;;;5111539;28;19942;-72
2022/04/29 02:17:06;;;;;;;;;;;8.20;99.90;;;;;;5093102;28;19920;-72
2022/04/29 02:19:32;;;;;;;;;;;8.10;99.90;;;;;;5111536;28;19908;-72
2022/04/29 02:21:58;;;;;;;;;;;8.10;99.90;;;;;;5093189;28;20481;-73
2022/04/29 02:24:23;;;;;;;;;;;8.10;99.90;;;;;;5111431;28;19908;-72
2022/04/29 02:26:49;;;;;;;;;;;8.00;99.90;;;;;;5093073;28;20359;-73
2022/04/29 02:29:14;;;;;;;;;;;8.00;99.90;;;;;;5111489;28;20371;-72
2022/04/29 02:31:40;;;;;;;;;;;7.90;99.90;;;;;;5101234;28;19916;-73
2022/04/29 02:34:05;;;;;;;;;;;8.00;99.90;;;;;;5108540;28;19922;-73
2022/04/29 02:36:31;;;;;;;;;;;8.00;99.90;;;;;;5097009;28;19920;-72
2022/04/29 02:38:57;;;;;;;;;;;7.90;99.90;;;;;;5115622;28;19907;-73
2022/04/29 02:41:23;;;;;;;;;;;9.00;99.90;;;;;;5115574;28;20006;-72
2022/04/29 02:43:48;;;;;;;;;;;7.90;99.90;;;;;;5115344;28;20347;-72
2022/04/29 02:46:14;;;;;;;;;;;7.90;99.90;;;;;;5115352;28;20364;-73
2022/04/29 02:48:39;;;;;;;;;;;7.90;99.90;;;;;;5115247;28;19915;-73
2022/04/29 02:51:05;;;;;;;;;;;7.90;99.90;;;;;;5115138;28;19916;-72
2022/04/29 02:53:33;;;;;;;;;;;7.80;99.90;;;;;;5115020;28;20457;-72
2022/04/29 02:55:58;;;;;;;;;;;7.80;99.90;;;;;;5115091;28;20049;-72
2022/04/29 02:58:24;;;;;;;;;;;7.80;99.90;;;;;;5096730;28;19975;-73
2022/04/29 03:00:49;;;;;;;;;;;7.80;99.90;;;;;;5096300;28;19923;-73
2022/04/29 03:03:15;;;;;;;;;;;7.80;99.90;;;;;;5115309;28;20065;-73
2022/04/29 03:05:41;;;;;;;;;;;7.90;99.90;;;;;;5115014;28;19920;-73
2022/04/29 03:08:07;;;;;;;;;;;7.90;99.90;;;;;;5114735;28;19908;-72
2022/04/29 03:10:33;;;;;;;;;;;7.90;99.90;;;;;;5114615;28;20274;-72
2022/04/29 03:12:59;;;;;;;;;;;7.90;99.90;;;;;;5114487;28;19920;-72
2022/04/29 03:15:25;;;;;;;;;;;7.70;99.90;;;;;;5114575;28;20321;-72
2022/04/29 03:20:37;;;;;;;;;;;7.70;99.90;;;;;;5114678;28;19923;-71
2022/04/29 03:23:03;;;;;;;;;;;7.80;99.90;;;;;;5096070;28;19922;-72
2022/04/29 03:25:28;;;;;;;;;;;7.80;99.90;;;;;;5114416;28;20294;-72
2022/04/29 03:27:54;;;;;;;;;;;7.80;99.90;;;;;;5114264;28;19914;-72
2022/04/29 03:30:19;;;;;;;;;;;7.80;99.90;;;;;;5095980;28;19915;-72
2022/04/29 03:32:53;;;;;;;;;;;7.90;99.90;;;;;;5114267;28;19914;-72
2022/04/29 03:35:18;;;;;;;;;;;7.90;99.90;;;;;;5095839;28;19965;-72
2022/04/29 03:37:45;;;;;;;;;;;7.90;99.90;;;;;;5114232;28;20269;-72
2022/04/29 03:40:11;;;;;;;;;;;8.00;99.90;;;;;;5114245;28;20042;-72
2022/04/29 03:42:36;;;;;;;;;;;8.00;99.90;;;;;;5114271;28;19907;-73
2022/04/29 03:45:02;;;;;;;;;;;8.00;99.90;;;;;;5113882;28;20002;-72
2022/04/29 03:47:27;;;;;;;;;;;8.00;99.90;;;;;;5095796;28;19916;-72
2022/04/29 03:49:53;;;;;;;;;;;8.00;99.90;;;;;;5114058;28;20027;-73
2022/04/29 03:52:18;;;;;;;;;;;8.10;99.90;;;;;;5114391;28;19916;-72
2022/04/29 03:54:44;;;;;;;;;;;8.10;99.90;;;;;;5113795;28;19919;-72
2022/04/29 03:57:09;;;;;;;;;;;8.10;99.90;;;;;;5114270;28;19926;-72
2022/04/29 03:59:35;;;;;;;;;;;8.20;99.90;;;;;;5113848;28;19939;-72
2022/04/29 04:02:00;;;;;;;;;;;8.30;99.90;;;;;;5113919;28;19920;-72
2022/04/29 04:04:26;;;;;;;;;;;8.40;99.90;;;;;;5113767;28;20266;-72
2022/04/29 04:06:51;;;;;;;;;;;8.40;99.90;;;;;;5113940;28;19942;-73
2022/04/29 04:09:21;;;;;;;;;;;8.50;99.90;;;;;;5113719;28;19911;-72
2022/04/29 04:11:46;;;;;;;;;;;8.60;99.90;;;;;;5113528;28;20242;-72
2022/04/29 04:14:12;;;;;;;;;;;8.60;99.90;;;;;;5113431;28;20302;-71
2022/04/29 04:16:38;;;;;;;;;;;8.70;99.90;;;;;;5113612;28;19958;-73
2022/04/29 04:19:03;;;;;;;;;;;8.80;99.90;;;;;;5113409;28;20360;-72
2022/04/29 04:21:29;;;;;;;;;;;8.90;99.90;;;;;;5113619;28;19927;-72
2022/04/29 04:23:55;;;;;;;;;;;8.90;99.90;;;;;;5113293;28;19908;-71
2022/04/29 04:26:21;;;;;;;;;;;9.00;99.90;;;;;;5094910;28;19922;-72
2022/04/29 04:28:46;;;;;;;;;;;9.00;99.90;;;;;;5113274;28;19908;-72
2022/04/29 04:31:12;;;;;;;;;;;9.20;99.90;;;;;;5113304;28;20321;-72
2022/04/29 04:33:37;;;;;;;;;;;9.30;99.90;;;;;;5113100;28;19985;-72
2022/04/29 04:36:04;;;;;;;;;;;9.50;99.90;;;;;;5112930;28;19916;-72
2022/04/29 04:38:30;;;;;;;;;;;9.70;99.90;;;;;;5113630;28;20342;-71
2022/04/29 04:40:56;;;;;;;;;;;9.80;99.90;;;;;;5113199;28;20330;-71
2022/04/29 04:43:21;;;;;;;;;;;10.00;99.90;;;;;;5094532;28;20003;-72
2022/04/29 04:45:48;;;;;;;;;;;10.20;99.90;;;;;;5113156;28;19959;-71
2022/04/29 04:48:13;;;;;;;;;;;10.40;99.90;;;;;;5112985;28;20398;-71
2022/04/29 04:50:39;;;;;;;;;;;10.60;99.90;;;;;;5112881;28;20022;-71
2022/04/29 04:53:04;;;;;;;;;;;10.80;99.90;;;;;;5112560;28;20248;-72
2022/04/29 04:55:31;;;;;;;;;;;11.00;99.90;;;;;;5112737;28;19916;-72
2022/04/29 04:57:57;;;;;;;;;;;11.00;99.90;;;;;;5111862;28;19908;-72
2022/04/29 05:00:22;;;;;;;;;;;11.10;99.90;;;;;;5112777;28;19918;-72
2022/04/29 05:02:48;;;;;;;;;;;11.30;99.90;;;;;;5112551;28;19907;-72
2022/04/29 05:05:13;;;;;;;;;;;11.30;99.90;;;;;;5094086;28;20308;-72
2022/04/29 05:07:40;;;;;;;;;;;11.90;99.90;;;;;;5112395;28;19931;-71
2022/04/29 05:10:09;;;;;;;;;;;11.40;99.90;;;;;;5112691;28;20352;-71
2022/04/29 05:12:41;;;;;;;;;;;11.60;99.70;;;;;;5112207;28;19928;-72
2022/04/29 05:15:07;;;;;;;;;;;11.80;99.90;;;;;;5094042;28;19919;-71
2022/04/29 05:17:32;;;;;;;;;;;12.00;99.40;;;;;;5112960;28;20319;-72
2022/04/29 05:19:58;;;;;;;;;;;12.10;99.60;;;;;;5094200;28;19907;-72
2022/04/29 05:22:23;;;;;;;;;;;12.20;99.30;;;;;;5112755;28;20417;-72
2022/04/29 05:24:49;;;;;;;;;;;12.30;99.30;;;;;;5094053;28;19915;-72
2022/04/29 05:27:14;;;;;;;;;;;12.30;99.10;;;;;;5112493;28;19919;-73
2022/04/29 05:29:40;;;;;;;;;;;12.40;98.60;;;;;;5112123;28;19942;-72
2022/04/29 05:32:06;;;;;;;;;;;12.40;98.50;;;;;;5112378;28;19920;-73
2022/04/29 05:34:33;;;;;;;;;;;12.50;98.50;;;;;;5112247;28;20297;-73
2022/04/29 05:36:59;;;;;;;;;;;12.40;98.10;;;;;;5112431;28;20002;-73
2022/04/29 05:42:15;;;;;;;;;;;12.70;97.80;;;;;;5112627;28;19923;-72
2022/04/29 05:44:41;;;;;;;;;;;12.80;97.80;;;;;;5111845;28;20356;-73
2022/04/29 05:47:07;;;;;;;;;;;13.00;97.10;;;;;;5112190;28;19916;-72
2022/04/29 05:49:33;;;;;;;;;;;13.30;97.00;;;;;;5111811;28;20039;-72
2022/04/29 05:51:59;;;;;;;;;;;13.50;96.70;;;;;;5112075;28;20268;-73
2022/04/29 05:54:25;;;;;;;;;;;13.50;94.70;;;;;;5111707;28;19944;-73
2022/04/29 05:56:50;;;;;;;;;;;13.50;93.80;;;;;;5093784;28;20416;-72
2022/04/29 05:59:16;;;;;;;;;;;13.50;93.50;;;;;;5111735;28;19960;-72
2022/04/29 06:01:41;;;;;;;;;;;13.70;92.50;;;;;;5111896;28;19989;-72
2022/04/29 06:04:07;;;;;;;;;;;13.70;92.40;;;;;;5093658;28;20364;-73
2022/04/29 06:06:33;;;;;;;;;;;13.60;92.40;;;;;;5111859;28;19916;-73
2022/04/29 06:08:59;;;;;;;;;;;13.80;92.80;;;;;;5094649;28;19934;-73
2022/04/29 06:11:24;;;;;;;;;;;13.80;90.80;;;;;;5116021;28;19919;-72
2022/04/29 06:13:51;;;;;;;;;;;13.80;90.20;;;;;;5115811;28;19994;-73
2022/04/29 06:16:17;;;;;;;;;;;14.00;90.00;;;;;;5116116;28;20001;-73
2022/04/29 06:18:43;;;;;;;;;;;14.20;89.90;;;;;;5115725;28;20367;-74
2022/04/29 06:21:08;;;;;;;;;;;14.60;89.10;;;;;;5115764;28;19958;-74
2022/04/29 06:23:34;;;;;;;;;;;14.90;87.10;;;;;;5115682;28;19907;-74
2022/04/29 06:25:59;;;;;;;;;;;15.00;86.20;;;;;;5097180;28;19916;-74
2022/04/29 06:28:25;;;;;;;;;;;14.80;84.00;;;;;;5115608;28;20352;-74
2022/04/29 06:30:50;;;;;;;;;;;14.50;85.40;;;;;;5115551;28;19963;-73
2022/04/29 06:33:16;;;;;;;;;;;14.50;86.80;;;;;;5115410;28;19957;-75
2022/04/29 06:35:42;;;;;;;;;;;14.70;86.00;;;;;;5096897;28;19927;-74
2022/04/29 06:38:09;;;;;;;;;;;14.90;85.20;;;;;;5097166;28;19954;-75
2022/04/29 06:40:34;;;;;;;;;;;15.30;84.20;;;;;;5096951;28;19916;-74
2022/04/29 06:43:00;;;;;;;;;;;15.50;83.40;;;;;;5115360;28;19908;-73
2022/04/29 06:45:25;;;;;;;;;;;15.70;83.90;;;;;;5115338;28;20347;-73
2022/04/29 06:47:50;;;;;;;;;;;15.60;82.80;;;;;;5115669;28;19911;-73
2022/04/29 06:50:16;;;;;;;;;;;15.50;83.00;;;;;;5115353;28;20002;-73
2022/04/29 06:52:41;;;;;;;;;;;15.50;84.40;;;;;;5115064;28;20282;-73
2022/04/29 06:55:08;;;;;;;;;;;15.70;84.80;;;;;;5114959;28;19915;-72
2022/04/29 06:57:34;;;;;;;;;;;16.10;81.50;;;;;;5115023;28;20073;-73
2022/04/29 07:00:00;;;;;;;;;;;16.40;82.50;;;;;;5114987;28;20006;-73
2022/04/29 07:02:26;;;;;;;;;;;16.50;79.90;;;;;;5115431;28;20002;-73
2022/04/29 07:04:54;;;;;;;;;;;16.20;80.30;;;;;;5114835;28;19943;-73
2022/04/29 07:07:20;;;;;;;;;;;16.20;80.50;;;;;;5115063;28;20006;-72
2022/04/29 07:09:45;;;;;;;;;;;16.40;78.90;;;;;;5114924;28;19995;-73
2022/04/29 07:12:11;;;;;;;;;;;16.80;79.00;;;;;;5114876;28;19928;-72
2022/04/29 07:14:36;;;;;;;;;;;17.10;79.00;;;;;;5096349;28;19916;-73
2022/04/29 07:17:02;;;;;;;;;;;17.30;77.90;;;;;;5115077;28;19916;-73
2022/04/29 07:19:28;;;;;;;;;;;17.50;77.40;;;;;;5114489;28;20006;-72
2022/04/29 07:21:53;;;;;;;;;;;17.50;77.50;;;;;;5113651;28;19923;-72
2022/04/29 07:24:19;;;;;;;;;;;17.60;76.80;;;;;;5114603;28;20334;-72
2022/04/29 07:26:44;;;;;;;;;;;17.50;76.80;;;;;;5096023;28;19922;-72
2022/04/29 07:29:10;;;;;;;;;;;17.40;75.10;;;;;;5114602;28;19908;-73
2022/04/29 07:31:35;;;;;;;;;;;17.20;74.10;;;;;;5114464;28;20421;-73
2022/04/29 07:34:01;;;;;;;;;;;16.50;75.20;;;;;;5114590;28;19971;-72
2022/04/29 07:41:55;;;;;;;;;;;16.80;75.20;;;;;;5114844;28;20010;-71
2022/04/29 07:44:21;;;;;;;;;;;16.90;75.60;;;;;;5114231;28;19958;-72
2022/04/29 07:46:47;;;;;;;;;;;17.30;75.10;;;;;;5114194;28;19916;-72
2022/04/29 07:49:13;;;;;;;;;;;17.70;72.60;;;;;;5113987;28;19907;-72
2022/04/29 07:51:38;;;;;;;;;;;18.20;71.50;;;;;;5114335;28;19938;-72
2022/04/29 07:54:04;;;;;;;;;;;18.60;71.40;;;;;;5113892;28;19918;-71
2022/04/29 07:56:30;;;;;;;;;;;18.80;68.50;;;;;;5114091;28;19920;-72
2022/04/29 07:58:56;;;;;;;;;;;18.90;68.10;;;;;;5113935;28;20355;-72
2022/04/29 08:01:21;;;;;;;;;;;18.90;69.60;;;;;;5113931;28;19919;-72
2022/04/29 08:03:47;;;;;;;;;;;18.90;69.20;;;;;;5114388;28;19908;-71
2022/04/29 08:06:13;;;;;;;;;;;18.90;68.60;;;;;;5113779;28;19919;-72
2022/04/29 08:08:38;;;;;;;;;;;19.00;69.20;;;;;;5114068;28;19986;-71
2022/04/29 08:11:04;;;;;;;;;;;19.20;69.30;;;;;;5095164;28;19957;-72
2022/04/29 08:13:30;;;;;;;;;;;19.40;69.20;;;;;;5113199;28;20391;-72
2022/04/29 08:15:58;;;;;;;;;;;19.70;67.60;;;;;;5113530;28;19923;-72
2022/04/29 08:18:24;;;;;;;;;;;19.90;65.40;;;;;;5113576;28;19912;-74
2022/04/29 08:20:50;;;;;;;;;;;20.00;64.10;;;;;;5113378;28;19923;-74
2022/04/29 08:23:15;;;;;;;;;;;20.20;64.80;;;;;;5113421;28;19951;-75
2022/04/29 08:25:41;;;;;;;;;;;20.50;66.30;;;;;;5095092;28;19920;-74
2022/04/29 08:28:06;;;;;;;;;;;20.40;63.90;;;;;;5113343;28;19939;-74
2022/04/29 08:30:32;;;;;;;;;;;20.10;63.00;;;;;;5113179;28;19916;-74
2022/04/29 08:32:59;;;;;;;;;;;19.80;64.70;;;;;;5112368;28;19912;-73
2022/04/29 08:35:25;;;;;;;;;;;19.70;62.90;;;;;;5094425;28;19916;-74
2022/04/29 08:37:51;;;;;;;;;;;19.20;63.10;;;;;;5112965;28;19908;-74
2022/04/29 08:40:16;;;;;;;;;;;18.90;64.40;;;;;;5112913;28;20011;-74
2022/04/29 08:42:42;;;;;;;;;;;19.20;64.10;;;;;;5094739;28;19911;-71
2022/04/29 08:45:09;;;;;;;;;;;19.60;62.70;;;;;;5094589;28;19908;-72
2022/04/29 08:47:35;;;;;;;;;;;19.40;64.70;;;;;;5113403;28;19916;-72
2022/04/29 08:50:01;;;;;;;;;;;19.10;65.10;;;;;;5112764;28;19918;-71
2022/04/29 08:52:27;;;;;;;;;;;18.80;65.90;;;;;;5113360;28;19916;-72
2022/04/29 09:00:23;;;;;;;;;;;17.50;67.70;;;;;;5113236;28;19946;-71
2022/04/29 09:02:49;;;;;;;;;;;17.20;67.90;;;;;;5112547;28;20066;-71
2022/04/29 09:05:14;;;;;;;;;;;16.80;68.30;;;;;;5094033;28;19915;-74
2022/04/29 09:07:50;;;;;;;;;;;16.60;69.00;;;;;;5112424;28;19908;-72
2022/04/29 09:10:15;;;;;;;;;;;16.40;69.30;;;;;;5112464;28;19908;-72
2022/04/29 09:12:41;;;;;;;;;;;16.40;69.50;;;;;;5112355;28;20086;-72
2022/04/29 09:15:10;;;;;;;;;;;16.30;70.80;;;;;;5112153;28;19916;-72
2022/04/29 09:17:38;;;;;;;;;;;16.30;70.80;;;;;;5112584;28;19954;-72
2022/04/29 09:20:12;;;;;;;;;;;16.20;70.80;;;;;;5094078;28;19915;-73
2022/04/29 09:22:38;;;;;;;;;;;16.30;71.40;;;;;;5112504;28;20295;-72
2022/04/29 09:25:04;;;;;;;;;;;16.40;72.30;;;;;;5093989;28;19908;-73
2022/04/29 09:27:30;;;;;;;;;;;16.40;71.60;;;;;;5112373;28;19919;-72
2022/04/29 09:30:01;;;;;;;;;;;16.40;72.60;;;;;;5112001;28;19911;-72
2022/04/29 09:32:56;;;;;;;;;;;16.50;71.50;;;;;;5112517;28;20274;-72
2022/04/29 09:35:40;;;;;;;;;;;16.60;71.30;;;;;;5094433;28;20014;-72
2022/04/29 09:40:52;;;;;;;;;;;16.90;71.80;;;;;;5111890;28;20244;-72
2022/04/29 09:43:29;;;;;;;;;;;16.90;70.70;;;;;;5111686;28;19915;-72
2022/04/29 09:46:07;;;;;;;;;;;16.60;70.30;;;;;;5112120;28;19912;-72
2022/04/29 09:48:49;;;;;;;;;;;16.50;70.10;;;;;;5111780;28;19919;-72
2022/04/29 09:51:14;;;;;;;;;;;16.50;71.50;;;;;;5112115;28;19919;-72
2022/04/29 09:53:40;;;;;;;;;;;16.50;71.90;;;;;;5111678;28;19915;-73
2022/04/29 09:56:06;;;;;;;;;;;16.50;72.80;;;;;;5111858;28;20014;-73
2022/04/29 09:58:32;;;;;;;;;;;16.40;71.90;;;;;;5111757;28;19916;-73
2022/04/29 10:00:59;;;;;;;;;;;16.50;72.30;;;;;;5111793;28;20392;-72
2022/04/29 10:03:25;;;;;;;;;;;16.40;72.20;;;;;;5111591;28;19919;-72
2022/04/29 10:05:50;;;;;;;;;;;16.50;73.70;;;;;;5111530;28;20295;-72
2022/04/29 10:08:17;;;;;;;;;;;16.70;75.10;;;;;;5111514;28;19934;-73
2022/04/29 10:10:42;;;;;;;;;;;16.80;75.70;;;;;;5111711;28;20439;-72
2022/04/29 10:13:08;;;;;;;;;;;17.30;74.40;;;;;;5111359;28;20353;-72
2022/04/29 10:15:37;;;;;;;;;;;17.80;76.00;;;;;;5110908;28;20424;-72
2022/04/29 10:23:35;;;;;;;;;;;20.00;68.30;;;;;;5096549;28;19972;-71
2022/04/29 10:26:01;;;;;;;;;;;20.30;66.70;;;;;;5111528;28;19919;-72
2022/04/29 10:28:27;;;;;;;;;;;20.50;67.70;;;;;;5111314;28;20335;-73
2022/04/29 10:31:00;;;;;;;;;;;20.70;64.90;;;;;;5111496;28;19916;-72
2022/04/29 10:33:25;;;;;;;;;;;21.00;66.30;;;;;;5111375;28;20002;-72
2022/04/29 10:35:56;;;;;;;;;;;21.50;66.10;;;;;;5111420;28;20039;-72
2022/04/29 10:38:25;;;;;;;;;;;21.70;64.60;;;;;;5111292;28;19922;-72
2022/04/29 10:41:06;;;;;;;;;;;21.50;64.20;;;;;;5093054;28;20350;-72
2022/04/29 10:43:32;;;;;;;;;;;21.40;63.80;;;;;;5092681;28;19927;-72
2022/04/29 10:46:03;;;;;;;;;;;21.40;64.50;;;;;;5111721;28;19916;-72
2022/04/29 10:48:33;;;;;;;;;;;21.50;63.40;;;;;;5111255;28;19943;-72
2022/04/29 10:51:19;;;;;;;;;;;21.40;62.10;;;;;;5111294;28;20002;-73
2022/04/29 10:53:48;;;;;;;;;;;20.80;62.90;;;;;;5097172;28;19911;-72
2022/04/29 10:56:32;;;;;;;;;;;19.90;62.50;;;;;;5112639;28;19915;-73
2022/04/29 10:59:03;;;;;;;;;;;19.30;64.40;;;;;;5115050;28;20013;-72
2022/04/29 11:01:33;;;;;;;;;;;19.10;66.20;;;;;;5115181;28;20014;-72
2022/04/29 11:03:59;;;;;;;;;;;19.20;65.50;;;;;;5114978;28;20360;-72
2022/04/29 11:06:34;;;;;;;;;;;19.10;64.80;;;;;;5115230;28;19916;-73
2022/04/29 11:09:00;;;;;;;;;;;18.80;64.80;;;;;;5115121;28;19996;-73
2022/04/29 11:11:43;;;;;;;;;;;18.50;65.90;;;;;;5114856;28;19978;-72
2022/04/29 11:14:12;;;;;;;;;;;18.50;68.20;;;;;;5114747;28;19919;-72
2022/04/29 11:16:55;;;;;;;;;;;19.00;67.80;;;;;;5096418;28;19911;-72
2022/04/29 11:19:33;;;;;;;;;;;19.70;65.30;;;;;;5096379;28;20371;-73
2022/04/29 11:24:45;;;;;;;;;;;19.80;65.00;;;;;;5114889;28;20338;-73
2022/04/29 11:27:10;;;;;;;;;;;19.40;65.50;;;;;;5114808;28;19912;-73
2022/04/29 11:29:42;;;;;;;;;;;19.40;66.40;;;;;;5113599;28;20003;-72
2022/04/29 11:32:08;;;;;;;;;;;19.40;65.10;;;;;;5096214;28;19959;-73
2022/04/29 11:34:34;;;;;;;;;;;19.60;64.70;;;;;;5114187;28;19920;-70
2022/04/29 11:37:00;;;;;;;;;;;19.40;63.40;;;;;;5114302;28;19942;-71
2022/04/29 11:39:25;;;;;;;;;;;19.10;66.40;;;;;;5114219;28;20363;-70
2022/04/29 11:41:52;;;;;;;;;;;18.70;65.50;;;;;;5114412;28;19939;-71
2022/04/29 11:44:22;;;;;;;;;;;18.60;66.90;;;;;;5114016;28;19964;-71
2022/04/29 11:46:51;;;;;;;;;;;18.50;66.40;;;;;;5114148;28;19937;-71
2022/04/29 11:49:26;;;;;;;;;;;18.00;65.50;;;;;;5114485;28;19939;-71
2022/04/29 11:51:52;;;;;;;;;;;17.90;66.30;;;;;;5114271;28;19916;-71
2022/04/29 11:54:17;;;;;;;;;;;18.00;67.90;;;;;;5113810;28;20069;-71
2022/04/29 11:56:42;;;;;;;;;;;17.90;68.70;;;;;;5107974;28;19935;-72
2022/04/29 11:59:08;;;;;;;;;;;18.00;68.70;;;;;;5113839;28;19911;-71
2022/04/29 12:01:35;;;;;;;;;;;17.90;68.30;;;;;;5114121;28;20018;-72
2022/04/29 12:04:01;;;;;;;;;;;17.90;69.10;;;;;;5113866;28;19995;-71
2022/04/29 12:06:26;;;;;;;;;;;18.00;68.60;;;;;;5113764;28;19969;-71
2022/04/29 12:08:52;;;;;;;;;;;18.20;67.90;;;;;;5113900;28;19916;-71
2022/04/29 12:11:24;;;;;;;;;;;18.50;68.00;;;;;;5113894;28;20374;-71
2022/04/29 12:13:49;;;;;;;;;;;18.90;66.30;;;;;;5113478;28;19973;-71
2022/04/29 12:16:15;;;;;;;;;;;19.10;63.60;;;;;;5113676;28;19924;-72
2022/04/29 12:18:45;;;;;;;;;;;19.30;62.50;;;;;;5113458;28;19930;-71
2022/04/29 12:21:11;;;;;;;;;;;19.20;65.70;;;;;;5113539;28;20002;-71
2022/04/29 12:23:37;;;;;;;;;;;18.60;66.50;;;;;;5113932;28;19942;-71
2022/04/29 12:26:03;;;;;;;;;;;18.50;67.00;;;;;;5113470;28;19924;-72
2022/04/29 12:28:29;;;;;;;;;;;18.30;67.60;;;;;;5113053;28;19919;-72
2022/04/29 12:36:31;;;;;;;;;;;17.80;69.30;;;;;;5113324;28;19933;-71
2022/04/29 12:39:03;;;;;;;;;;;17.60;67.40;;;;;;5094809;28;20288;-72
2022/04/29 12:41:29;;;;;;;;;;;17.40;68.10;;;;;;5094534;28;19919;-72
2022/04/29 12:44:11;;;;;;;;;;;17.30;69.90;;;;;;5113244;28;19961;-71
2022/04/29 12:46:36;;;;;;;;;;;17.20;69.60;;;;;;5113219;28;20003;-71
2022/04/29 12:49:02;;;;;;;;;;;17.20;70.40;;;;;;5094419;28;19951;-72
2022/04/29 12:51:29;;;;;;;;;;;17.30;69.90;;;;;;5112811;28;20359;-71
2022/04/29 12:53:55;;;;;;;;;;;17.40;69.30;;;;;;5112986;28;19916;-72
2022/04/29 12:56:23;;;;;;;;;;;17.50;69.60;;;;;;5112584;28;19912;-71
2022/04/29 12:58:49;;;;;;;;;;;17.50;70.00;;;;;;5094196;28;20264;-71
2022/04/29 13:01:14;;;;;;;;;;;17.30;71.10;;;;;;5112506;28;19926;-72
2022/04/29 13:03:40;;;;;;;;;;;17.30;71.10;;;;;;5112475;28;19951;-69
2022/04/29 13:06:07;;;;;;;;;;;17.30;71.10;;;;;;5112516;28;19912;-69
2022/04/29 13:08:33;;;;;;;;;;;17.20;70.80;;;;;;5112613;28;20382;-69
2022/04/29 13:10:59;;;;;;;;;;;17.40;69.90;;;;;;5112272;28;19916;-69
2022/04/29 13:13:25;;;;;;;;;;;17.60;69.90;;;;;;5111999;28;19920;-70
2022/04/29 13:15:51;;;;;;;;;;;17.50;68.60;;;;;;5112190;28;20019;-73
2022/04/29 13:18:17;;;;;;;;;;;17.70;67.80;;;;;;5111645;28;20340;-73
2022/04/29 13:20:43;;;;;;;;;;;17.80;67.30;;;;;;5109698;28;19920;-73
2022/04/29 13:23:12;;;;;;;;;;;17.70;68.30;;;;;;5091299;28;19911;-73
2022/04/29 13:25:38;;;;;;;;;;;17.80;68.60;;;;;;5110438;28;19916;-73
2022/04/29 13:28:04;;;;;;;;;;;17.80;67.80;;;;;;5110557;28;20348;-73
2022/04/29 13:30:30;;;;;;;;;;;17.70;68.20;;;;;;5110399;28;20945;-72
2022/04/29 13:32:55;;;;;;;;;;;17.70;69.00;;;;;;5092170;28;19912;-73
2022/04/29 13:35:21;;;;;;;;;;;17.80;69.60;;;;;;5110459;28;19988;-73
2022/04/29 13:37:47;;;;;;;;;;;17.90;68.70;;;;;;5093967;28;19937;-73
2022/04/29 13:40:12;;;;;;;;;;;17.90;68.30;;;;;;5111828;28;20006;-73
2022/04/29 13:42:38;;;;;;;;;;;17.90;67.40;;;;;;5111894;28;20249;-73
2022/04/29 13:45:05;;;;;;;;;;;17.80;67.20;;;;;;5093110;28;19908;-73
2022/04/29 13:47:33;;;;;;;;;;;17.60;67.80;;;;;;5093399;28;19923;-73
2022/04/29 13:49:59;;;;;;;;;;;17.50;67.80;;;;;;5093458;28;19908;-74
2022/04/29 13:55:10;;;;;;;;;;;17.50;68.60;;;;;;5111840;28;20440;-73
2022/04/29 13:57:35;;;;;;;;;;;17.50;68.60;;;;;;5111594;28;19916;-73
2022/04/29 14:00:01;;;;;;;;;;;17.60;68.40;;;;;;5111747;28;20250;-73
2022/04/29 14:02:27;;;;;;;;;;;17.70;68.10;;;;;;5112104;28;19923;-73
2022/04/29 14:04:52;;;;;;;;;;;17.70;67.90;;;;;;5111584;28;19985;-73
2022/04/29 14:07:18;;;;;;;;;;;17.70;68.20;;;;;;5111831;28;19920;-73
2022/04/29 14:09:43;;;;;;;;;;;17.60;67.60;;;;;;5111516;28;20367;-73
2022/04/29 14:12:11;;;;;;;;;;;17.40;68.30;;;;;;5093106;28;19916;-74
2022/04/29 14:14:40;;;;;;;;;;;17.30;68.90;;;;;;5111378;28;19951;-73
2022/04/29 14:17:06;;;;;;;;;;;17.20;69.00;;;;;;5111730;28;20359;-73
2022/04/29 14:19:31;;;;;;;;;;;17.10;69.50;;;;;;5093352;28;19919;-73
2022/04/29 14:21:57;;;;;;;;;;;16.90;70.40;;;;;;5111534;28;19955;-73
2022/04/29 14:24:22;;;;;;;;;;;16.90;69.60;;;;;;5111389;28;19962;-73
2022/04/29 14:26:48;;;;;;;;;;;17.00;70.20;;;;;;5111602;28;20268;-74
2022/04/29 14:29:14;;;;;;;;;;;16.90;70.80;;;;;;5111465;28;19907;-73
2022/04/29 14:31:40;;;;;;;;;;;16.80;70.20;;;;;;5095390;28;19922;-73
2022/04/29 14:34:05;;;;;;;;;;;16.60;70.80;;;;;;5115352;28;19911;-73
2022/04/29 14:36:32;;;;;;;;;;;16.50;71.60;;;;;;5115585;28;19966;-73
2022/04/29 14:39:01;;;;;;;;;;;16.40;71.80;;;;;;5115503;28;19908;-73
2022/04/29 14:41:27;;;;;;;;;;;16.40;72.50;;;;;;5097038;28;20385;-73
2022/04/29 14:43:53;;;;;;;;;;;16.40;71.50;;;;;;5115435;28;19916;-74
2022/04/29 14:46:19;;;;;;;;;;;16.50;71.50;;;;;;5097028;28;19934;-73
2022/04/29 14:48:44;;;;;;;;;;;16.60;71.20;;;;;;5115259;28;19908;-73
2022/04/29 14:51:10;;;;;;;;;;;16.70;70.70;;;;;;5115425;28;19923;-73
2022/04/29 14:53:37;;;;;;;;;;;16.70;70.70;;;;;;5115207;28;20417;-73